Ciampino Airport LIRA

Flugplatz Daten

Name: Ciampino Airport

Ident: LIRA

Lat: 41,79940033

Long: 12,59490013

Platzhöhe: 427 ft

IataCode: CIA

City: Roma

Metar

2021/08/05 13:20
LIRA 051320Z 27009KT 220V300 9999 SCT040 27/17 Q1011

Taf

2021/08/05 12:00
TAF LIRA 051100Z 0512/0612 26015KT 9999 SCT030
BECMG 0518/0520 VRB05KT
BECMG 0608/0610 24010KT
Gewünschte Webcam nicht vorhanden? Dann fügen Sie eine hinzu. Sie wird dann so schnell wie möglich freigeschaltet
Url: Title: